Campo Bom, Brazil
Current Conditions -  °F | °C
As of 3:00 PM on Friday 24 Oct 2014 (Local Time) from SBCO Reporting Station
Clear Clear  
Wind Chill: 81°   Ceiling: Unl
Heat Index: 82°   Visibility: 6mi
Dew Point: 64°   Wind: 6mph
Humidity: 58%   Direction: 240°WSW
Pressure: 29.91"   Gusts: NA
Location:  29.68°S, 51.05°W
Report Text: SBCO 241700Z 24005KT CAVOK 27/18 Q1013
Loading
Personal Weather Stations






























Interactive Weather Map
Tropical Storm Tracking
New forecast layout! Learn more

10-Day Weather Forecast

Advertisements
Track Severe Weather on mobile